Time;durP1;ratioP1;P1;durP2;ratioP2;P2;SDS_P1;SDS_P2;PMS_P1;PMS_P2;Temp;Humidity;BMP_temperature;BMP_pressure;BME280_temperature;BME280_humidity;BME280_pressure;Samples;Min_cycle;Max_cycle;Signal;HPM_P1;HPM_P2
2021/06/29 00:00:25;;;;;;;10.65;9.57;;;;;;;20.74;72.05;98203.06;5050938;28;20036;-64
2021/06/29 00:03:05;;;;;;;9.05;8.25;;;;;;;20.80;71.69;98197.41;5050921;28;20040;-64
2021/06/29 00:05:31;;;;;;;9.25;8.63;;;;;;;20.71;72.07;98192.03;5049358;28;20459;-64
2021/06/29 00:07:58;;;;;;;8.95;8.20;;;;;;;20.63;72.38;98179.47;5047612;28;20052;-64
2021/06/29 00:10:27;;;;;;;9.80;8.98;;;;;;;20.57;72.80;98174.69;5034877;28;20329;-64
2021/06/29 00:12:53;;;;;;;9.50;8.70;;;;;;;20.55;72.38;98184.38;5051745;28;20036;-64
2021/06/29 00:15:19;;;;;;;8.43;7.78;;;;;;;20.49;72.83;98188.25;5036282;28;20028;-63
2021/06/29 00:17:45;;;;;;;9.32;8.63;;;;;;;20.44;73.39;98199.88;5049317;28;20047;-63
2021/06/29 00:20:11;;;;;;;9.02;8.32;;;;;;;20.40;73.79;98198.41;5050288;28;20289;-63
2021/06/29 00:22:37;;;;;;;8.38;7.78;;;;;;;20.35;74.00;98195.28;5052069;28;20036;-63
2021/06/29 00:25:03;;;;;;;9.20;8.40;;;;;;;20.33;75.99;98190.16;5048209;28;20025;-64
2021/06/29 00:27:28;;;;;;;9.25;8.43;;;;;;;20.31;77.28;98186.00;5050196;28;20192;-64
2021/06/29 00:29:54;;;;;;;9.55;8.85;;;;;;;20.23;77.10;98193.44;5049657;28;20041;-64
2021/06/29 00:32:19;;;;;;;9.77;8.95;;;;;;;20.16;77.88;98187.78;5051759;28;20724;-64
2021/06/29 00:34:44;;;;;;;9.95;9.15;;;;;;;20.08;78.41;98182.22;5049733;28;20075;-63
2021/06/29 00:37:10;;;;;;;9.13;8.32;;;;;;;20.03;77.95;98179.94;5050939;28;20250;-64
2021/06/29 00:39:35;;;;;;;10.13;9.07;;;;;;;20.01;77.90;98176.59;5049623;28;20024;-64
2021/06/29 00:42:01;;;;;;;10.63;9.73;;;;;;;20.00;77.26;98172.31;5052375;28;20116;-64
2021/06/29 00:44:26;;;;;;;10.13;9.32;;;;;;;20.02;75.84;98165.28;5049733;28;20028;-63
2021/06/29 00:46:53;;;;;;;10.15;9.32;;;;;;;20.04;75.54;98167.75;5050166;28;20064;-63
2021/06/29 00:49:19;;;;;;;10.25;9.10;;;;;;;20.04;75.65;98167.75;5048553;28;20404;-63
2021/06/29 00:51:45;;;;;;;9.88;8.52;;;;;;;20.03;76.90;98159.09;5050339;28;20025;-63
2021/06/29 00:54:13;;;;;;;10.50;9.75;;;;;;;19.99;76.81;98162.84;5046669;28;20079;-63
2021/06/29 00:56:40;;;;;;;9.35;8.52;;;;;;;19.92;76.33;98155.53;5050819;28;20029;-63
2021/06/29 00:59:05;;;;;;;9.98;9.23;;;;;;;19.86;76.77;98159.34;5050310;28;20040;-63
2021/06/29 01:01:31;;;;;;;10.50;9.60;;;;;;;19.80;77.59;98151.97;5049740;28;20029;-63
2021/06/29 01:03:56;;;;;;;10.00;9.20;;;;;;;19.80;77.62;98151.97;5047619;28;20083;-63
2021/06/29 01:06:21;;;;;;;11.13;9.30;;;;;;;19.72;78.21;98158.59;5050026;28;20037;-63
2021/06/29 01:08:47;;;;;;;9.88;9.07;;;;;;;19.70;78.16;98156.06;5054342;28;20122;-63
2021/06/29 01:11:13;;;;;;;10.25;9.48;;;;;;;19.71;78.31;98149.09;5054350;28;20028;-63
2021/06/29 01:13:41;;;;;;;10.95;10.05;;;;;;;19.70;78.51;98160.44;5054595;28;20029;-64
2021/06/29 01:16:08;;;;;;;11.15;10.25;;;;;;;19.56;78.46;98158.72;5050883;28;20379;-64
2021/06/29 01:18:34;;;;;;;11.95;10.25;;;;;;;19.57;77.79;98162.97;5053366;28;20113;-63
2021/06/29 01:21:00;;;;;;;11.45;10.35;;;;;;;19.64;76.83;98153.88;5051560;28;20083;-63
2021/06/29 01:23:28;;;;;;;10.75;9.85;;;;;;;19.63;76.28;98153.97;5052034;28;20393;-64
2021/06/29 01:26:21;;;;;;;12.95;10.65;;;;;;;19.61;77.05;98156.66;5053093;28;20028;-64
2021/06/29 01:31:16;;;;;;;11.57;10.48;;;;;;;19.51;77.20;98166.81;5052640;28;20041;-64
2021/06/29 01:33:43;;;;;;;11.55;10.45;;;;;;;19.49;77.68;98165.22;5051024;28;20056;-64
2021/06/29 01:36:09;;;;;;;11.88;10.82;;;;;;;19.47;77.05;98159.28;5051044;28;20286;-63
2021/06/29 01:38:35;;;;;;;10.90;10.05;;;;;;;19.45;77.40;98166.34;5053918;28;20324;-63
2021/06/29 01:41:00;;;;;;;11.55;10.60;;;;;;;19.38;77.61;98165.03;5052179;28;20124;-63
2021/06/29 01:43:29;;;;;;;11.45;10.40;;;;;;;19.34;77.79;98166.16;5052506;28;20029;-63
2021/06/29 01:45:56;;;;;;;11.07;10.20;;;;;;;19.30;78.82;98164.66;5052707;28;20033;-63
2021/06/29 01:48:23;;;;;;;11.70;10.73;;;;;;;19.31;78.51;98163.75;5051859;28;20102;-63
2021/06/29 01:50:50;;;;;;;11.48;10.40;;;;;;;19.31;77.86;98155.94;5052916;28;20033;-64
2021/06/29 01:53:16;;;;;;;10.60;9.70;;;;;;;19.26;77.71;98160.59;5053494;28;20052;-64
2021/06/29 01:55:41;;;;;;;11.50;10.60;;;;;;;19.23;77.56;98146.00;5053639;28;20100;-64
2021/06/29 01:58:07;;;;;;;10.93;10.02;;;;;;;19.20;78.10;98150.56;5051689;28;20032;-63
2021/06/29 02:00:33;;;;;;;10.77;9.98;;;;;;;19.18;78.14;98142.84;5054141;28;20234;-63
2021/06/29 02:02:58;;;;;;;10.40;9.60;;;;;;;19.22;77.97;98148.72;5052195;28;20029;-63
2021/06/29 02:05:24;;;;;;;11.60;10.60;;;;;;;19.18;78.06;98150.63;5051962;28;20047;-63
2021/06/29 02:07:49;;;;;;;10.93;9.93;;;;;;;19.13;78.07;98147.50;5052342;28;20025;-63
2021/06/29 02:10:16;;;;;;;11.30;10.30;;;;;;;19.10;78.32;98145.91;5052353;28;20072;-63
2021/06/29 02:12:45;;;;;;;11.23;10.23;;;;;;;19.14;78.41;98143.97;5053043;28;20078;-63
2021/06/29 02:15:12;;;;;;;11.27;10.27;;;;;;;19.07;78.13;98134.88;5052552;28;20028;-63
2021/06/29 02:17:38;;;;;;;11.00;10.10;;;;;;;18.98;78.57;98131.06;5050235;28;20431;-63
2021/06/29 02:20:07;;;;;;;10.90;10.10;;;;;;;19.04;78.49;98141.13;5053041;28;20112;-63
2021/06/29 02:22:33;;;;;;;12.68;11.60;;;;;;;18.95;78.60;98130.44;5051326;28;20425;-63
2021/06/29 02:24:59;;;;;;;11.68;10.45;;;;;;;18.96;78.92;98134.72;5050959;28;20064;-62
2021/06/29 02:27:28;;;;;;;11.63;10.55;;;;;;;18.93;78.83;98133.13;5053342;28;20374;-63
2021/06/29 02:29:54;;;;;;;11.15;10.30;;;;;;;18.91;78.78;98135.00;5052759;28;20366;-63
2021/06/29 02:32:19;;;;;;;11.18;10.30;;;;;;;18.94;78.68;98129.59;5051726;28;20052;-63
2021/06/29 02:34:45;;;;;;;11.48;10.57;;;;;;;18.95;78.46;98130.44;5050212;28;20362;-64
2021/06/29 02:37:10;;;;;;;9.95;9.15;;;;;;;18.94;78.40;98134.78;5052450;28;20040;-63
2021/06/29 02:39:35;;;;;;;10.55;9.65;;;;;;;18.99;76.94;98132.75;5051955;28;20417;-63
2021/06/29 02:42:01;;;;;;;10.90;9.93;;;;;;;19.04;76.33;98137.69;5051770;28;20135;-63
2021/06/29 02:44:29;;;;;;;11.52;10.45;;;;;;;19.02;76.71;98129.13;5052125;28;20047;-63
2021/06/29 02:46:54;;;;;;;11.90;10.88;;;;;;;19.07;75.84;98125.31;5051283;28;20600;-63
2021/06/29 02:49:20;;;;;;;10.68;9.68;;;;;;;19.05;76.17;98124.56;5051373;28;20036;-63
2021/06/29 02:51:45;;;;;;;10.82;9.93;;;;;;;18.97;77.21;98118.16;5049637;28;20033;-63
2021/06/29 02:54:11;;;;;;;9.77;9.07;;;;;;;18.87;78.11;98117.91;5052468;28;20360;-63
2021/06/29 02:56:37;;;;;;;11.38;10.38;;;;;;;18.82;78.62;98111.31;5051528;28;20037;-63
2021/06/29 02:59:13;;;;;;;10.48;9.68;;;;;;;18.77;79.31;98109.00;5051654;28;20160;-63
2021/06/29 03:01:40;;;;;;;11.18;10.25;;;;;;;18.78;80.06;98102.88;5051749;28;20037;-63
2021/06/29 03:04:06;;;;;;;10.13;9.38;;;;;;;18.73;80.58;98104.06;5036316;28;20033;-63
2021/06/29 03:06:31;;;;;;;10.93;10.13;;;;;;;18.68;80.70;98101.75;5050455;28;20036;-63
2021/06/29 03:08:58;;;;;;;10.85;9.95;;;;;;;18.65;80.48;98102.78;5049748;28;20045;-63
2021/06/29 03:11:23;;;;;;;11.50;10.70;;;;;;;18.64;80.88;98103.72;5051734;28;20142;-63
2021/06/29 03:13:49;;;;;;;12.07;11.05;;;;;;;18.63;80.40;98103.78;5051617;28;20036;-63
2021/06/29 03:16:14;;;;;;;13.88;11.75;;;;;;;18.65;78.76;98114.94;5048671;28;20037;-63
2021/06/29 03:18:40;;;;;;;13.82;12.57;;;;;;;18.70;78.19;98103.34;5049668;28;20354;-63
2021/06/29 03:21:07;;;;;;;11.55;10.55;;;;;;;18.79;77.68;98111.50;5049438;28;20036;-64
2021/06/29 03:23:36;;;;;;;11.57;10.57;;;;;;;18.80;77.45;98115.78;5049847;28;20040;-64
2021/06/29 03:26:02;;;;;;;12.18;11.02;;;;;;;18.75;77.76;98118.66;5050127;28;20039;-63
2021/06/29 03:28:28;;;;;;;11.45;10.45;;;;;;;18.72;78.07;98105.84;5049438;28;20041;-64
2021/06/29 03:30:54;;;;;;;11.30;10.30;;;;;;;18.66;78.40;98104.47;5051403;28;20025;-64
2021/06/29 03:33:19;;;;;;;11.40;10.43;;;;;;;18.64;78.56;98111.50;5048513;28;20044;-64
2021/06/29 03:35:44;;;;;;;11.70;10.63;;;;;;;18.66;77.50;98117.44;5051908;28;20029;-63
2021/06/29 03:38:10;;;;;;;11.82;10.73;;;;;;;18.84;76.49;98131.06;5049243;28;20055;-63
2021/06/29 03:40:35;;;;;;;11.50;10.40;;;;;;;18.93;75.84;98133.13;5050648;28;20025;-63
2021/06/29 03:43:01;;;;;;;14.15;11.13;;;;;;;18.85;76.08;98124.13;5049979;28;20067;-63
2021/06/29 03:45:26;;;;;;;11.48;10.48;;;;;;;18.78;76.68;98123.66;5049281;28;20032;-63
2021/06/29 03:47:52;;;;;;;11.88;10.68;;;;;;;18.83;76.68;98129.41;5049240;28;20347;-63
2021/06/29 03:50:17;;;;;;;11.43;10.52;;;;;;;18.85;77.31;98122.34;5050140;28;20115;-63
2021/06/29 03:52:43;;;;;;;10.85;9.85;;;;;;;18.89;77.13;98129.03;5050604;28;20043;-63
2021/06/29 03:55:09;;;;;;;12.18;10.98;;;;;;;18.95;77.24;98128.69;5051442;28;20056;-63
2021/06/29 03:57:34;;;;;;;12.43;11.23;;;;;;;18.99;76.70;98127.56;5048783;28;20025;-63
2021/06/29 03:59:59;;;;;;;12.48;11.48;;;;;;;19.18;74.79;98128.09;5049630;28;20378;-62
2021/06/29 04:02:27;;;;;;;11.60;10.60;;;;;;;19.35;74.40;98131.44;5048688;28;20037;-62
2021/06/29 04:04:54;;;;;;;12.52;11.35;;;;;;;19.44;74.78;98128.25;5051646;28;20043;-63
2021/06/29 04:07:20;;;;;;;12.00;10.90;;;;;;;19.70;72.21;98137.03;5049510;28;20037;-62
2021/06/29 04:09:45;;;;;;;9.85;9.07;;;;;;;19.78;72.99;98137.38;5049181;28;20049;-62
2021/06/29 04:12:11;;;;;;;10.50;9.70;;;;;;;19.97;71.33;98132.66;5047916;28;20420;-63
2021/06/29 04:14:37;;;;;;;12.38;10.38;;;;;;;20.04;71.79;98128.72;5050895;28;20048;-62
2021/06/29 04:17:03;;;;;;;10.80;9.90;;;;;;;20.11;72.13;98131.78;5052452;28;20024;-64
2021/06/29 04:19:28;;;;;;;9.98;9.27;;;;;;;20.10;71.86;98143.09;5050626;28;20021;-64
2021/06/29 04:21:54;;;;;;;9.43;8.55;;;;;;;20.17;70.15;98159.97;5050553;28;20037;-62
2021/06/29 04:24:20;;;;;;;10.48;9.38;;;;;;;20.39;69.46;98178.50;5050936;28;20037;-62
2021/06/29 04:26:45;;;;;;;9.75;8.98;;;;;;;20.58;68.66;98171.13;5047836;28;20033;-63
2021/06/29 04:29:11;;;;;;;9.65;8.85;;;;;;;20.82;67.05;98174.72;5048277;28;20345;-62
2021/06/29 04:31:36;;;;;;;8.57;7.65;;;;;;;21.01;66.47;98174.28;5046172;28;20052;-62
2021/06/29 04:34:02;;;;;;;9.45;8.65;;;;;;;21.08;65.66;98166.88;5050108;28;20044;-63
2021/06/29 04:36:28;;;;;;;9.45;8.65;;;;;;;21.30;65.15;98177.53;5050809;28;20087;-63
2021/06/29 04:38:54;;;;;;;8.75;8.07;;;;;;;21.37;65.43;98176.16;5049763;28;20382;-63
2021/06/29 04:41:19;;;;;;;9.73;8.95;;;;;;;21.34;65.91;98171.97;5049191;28;20047;-63
2021/06/29 04:43:45;;;;;;;8.73;7.93;;;;;;;21.54;64.65;98170.59;5053266;28;20033;-63
2021/06/29 04:46:12;;;;;;;8.55;7.72;;;;;;;21.79;64.59;98180.97;5052900;28;20194;-63
2021/06/29 04:48:39;;;;;;;9.57;8.68;;;;;;;21.96;64.18;98173.72;5054551;28;20056;-63
2021/06/29 04:51:06;;;;;;;9.50;8.70;;;;;;;22.20;63.58;98177.16;5053890;28;20082;-63
2021/06/29 04:53:32;;;;;;;9.13;8.32;;;;;;;22.45;62.46;98169.16;5051800;28;20032;-63
2021/06/29 04:55:58;;;;;;;7.50;7.00;;;;;;;22.70;60.13;98169.03;5053404;28;20040;-64
2021/06/29 04:58:23;;;;;;;7.70;7.18;;;;;;;22.83;60.44;98162.88;5052377;28;20029;-64
2021/06/29 05:00:50;;;;;;;7.32;6.72;;;;;;;23.12;60.18;98156.25;5053238;28;20048;-64
2021/06/29 05:03:16;;;;;;;7.35;6.78;;;;;;;23.43;59.00;98160.78;5052931;28;20046;-64
2021/06/29 05:05:41;;;;;;;8.00;7.43;;;;;;;23.55;59.17;98159.81;5052494;28;20032;-64
2021/06/29 05:08:09;;;;;;;8.23;7.63;;;;;;;23.85;59.92;98168.81;5051969;28;20033;-64
2021/06/29 05:10:35;;;;;;;7.82;7.22;;;;;;;23.82;60.66;98172.50;5053195;28;20029;-64
2021/06/29 05:13:00;;;;;;;8.38;7.65;;;;;;;23.88;60.57;98161.53;5053992;28;20029;-63
2021/06/29 05:15:26;;;;;;;8.60;7.75;;;;;;;23.85;61.02;98174.84;5052948;28;20029;-63
2021/06/29 05:17:51;;;;;;;7.57;6.88;;;;;;;23.90;61.17;98169.25;5051116;28;20029;-64
2021/06/29 05:20:17;;;;;;;9.65;7.50;;;;;;;23.89;61.43;98184.13;5052756;28;20029;-63
2021/06/29 05:22:42;;;;;;;9.25;7.47;;;;;;;23.93;61.11;98184.72;5053395;28;20286;-63
2021/06/29 05:25:08;;;;;;;7.55;6.85;;;;;;;24.06;60.69;98185.41;5052958;28;20034;-63
2021/06/29 05:27:37;;;;;;;8.43;7.20;;;;;;;24.22;60.04;98190.25;5053386;28;20096;-63
2021/06/29 05:30:04;;;;;;;7.90;7.30;;;;;;;24.27;60.14;98188.09;5053021;28;20108;-63
2021/06/29 05:32:29;;;;;;;7.82;7.13;;;;;;;24.24;60.25;98197.03;5052252;28;20469;-63
2021/06/29 05:34:54;;;;;;;9.65;7.40;;;;;;;24.22;60.32;98191.09;5049274;28;20028;-63
2021/06/29 05:37:20;;;;;;;7.45;6.78;;;;;;;24.39;59.89;98195.78;5051680;28;20029;-63
2021/06/29 05:39:45;;;;;;;7.25;6.63;;;;;;;24.34;59.78;98203.19;5051720;28;20370;-63
2021/06/29 05:42:11;;;;;;;7.65;7.03;;;;;;;24.57;58.89;98193.41;5054185;28;20112;-64
2021/06/29 05:44:36;;;;;;;8.20;7.60;;;;;;;24.56;58.71;98197.03;5052820;28;20078;-64
2021/06/29 05:47:06;;;;;;;7.65;6.95;;;;;;;24.73;58.97;98200.88;5052237;28;20028;-64
2021/06/29 05:49:31;;;;;;;7.60;6.90;;;;;;;24.92;58.04;98224.63;5038045;28;20061;-64
2021/06/29 05:51:56;;;;;;;7.45;6.85;;;;;;;25.04;57.52;98215.72;5051611;28;20029;-64
2021/06/29 05:54:22;;;;;;;8.60;7.90;;;;;;;25.02;57.61;98217.66;5050965;28;20420;-64
2021/06/29 05:56:47;;;;;;;8.48;7.28;;;;;;;24.97;57.82;98219.81;5052001;28;20028;-64
2021/06/29 05:59:13;;;;;;;7.90;6.88;;;;;;;25.13;57.31;98222.81;5050867;28;20045;-64
2021/06/29 06:01:38;;;;;;;7.88;7.18;;;;;;;25.04;57.33;98213.09;5035339;28;20075;-63
2021/06/29 06:04:04;;;;;;;7.80;7.10;;;;;;;25.17;57.16;98229.44;5051825;28;20037;-63
2021/06/29 06:06:29;;;;;;;8.15;7.35;;;;;;;25.24;57.10;98228.00;5052722;28;20087;-63
2021/06/29 06:08:54;;;;;;;7.63;6.72;;;;;;;25.13;57.13;98225.44;5051917;28;20048;-63
2021/06/29 06:11:20;;;;;;;8.07;7.35;;;;;;;24.92;57.47;98224.63;5053278;28;20040;-63
2021/06/29 06:13:46;;;;;;;7.95;6.95;;;;;;;24.87;57.94;98227.63;5051768;28;20087;-63
2021/06/29 06:16:12;;;;;;;7.78;7.20;;;;;;;25.17;56.96;98237.31;5052241;28;20024;-62
2021/06/29 06:18:38;;;;;;;8.15;7.43;;;;;;;25.26;57.01;98226.06;5051305;28;20444;-63
2021/06/29 06:21:04;;;;;;;11.70;7.63;;;;;;;25.37;56.57;98236.50;5051545;28;20031;-63
2021/06/29 06:23:29;;;;;;;7.60;6.95;;;;;;;25.48;55.82;98228.50;5051558;28;20033;-63
2021/06/29 06:25:55;;;;;;;8.32;7.72;;;;;;;25.37;55.91;98230.41;5052245;28;20029;-63
2021/06/29 06:28:21;;;;;;;8.07;7.47;;;;;;;25.63;55.83;98223.75;5051983;28;20041;-63
2021/06/29 06:30:46;;;;;;;7.15;6.65;;;;;;;25.73;55.47;98239.53;5052147;28;20033;-63
2021/06/29 06:33:12;;;;;;;8.05;7.28;;;;;;;25.67;55.38;98234.84;5050329;28;20396;-63
2021/06/29 06:35:37;;;;;;;7.88;7.13;;;;;;;25.75;55.84;98227.97;5047557;28;20522;-63
2021/06/29 06:38:03;;;;;;;8.65;7.60;;;;;;;25.99;54.55;98235.47;5050200;28;20033;-63
2021/06/29 06:40:29;;;;;;;7.45;6.85;;;;;;;26.01;54.77;98230.09;5051789;28;20040;-64
2021/06/29 06:42:54;;;;;;;7.60;7.05;;;;;;;26.07;54.22;98226.91;5047662;28;20040;-64
2021/06/29 06:45:23;;;;;;;7.55;6.95;;;;;;;25.86;54.70;98227.00;5050628;28;20029;-64
2021/06/29 06:47:49;;;;;;;8.48;7.70;;;;;;;26.10;54.13;98229.25;5037455;28;20359;-64
2021/06/29 06:50:15;;;;;;;7.13;6.63;;;;;;;26.09;53.99;98236.34;5051134;28;20148;-64
2021/06/29 06:52:40;;;;;;;7.55;7.05;;;;;;;25.90;54.63;98234.47;5049491;28;20281;-64
2021/06/29 06:55:07;;;;;;;7.47;6.93;;;;;;;26.00;54.05;98231.06;5051134;28;20032;-64
2021/06/29 06:57:33;;;;;;;8.35;7.55;;;;;;;26.11;54.23;98244.91;5049377;28;20024;-64
2021/06/29 06:59:58;;;;;;;7.72;7.13;;;;;;;26.15;54.50;98238.41;5051604;28;20090;-64
2021/06/29 07:02:24;;;;;;;8.27;6.78;;;;;;;26.28;52.76;98240.81;5051000;28;20033;-64
2021/06/29 07:04:49;;;;;;;7.72;7.13;;;;;;;26.51;52.92;98239.59;5048344;28;20307;-64
2021/06/29 07:07:15;;;;;;;8.93;7.75;;;;;;;26.52;52.63;98241.22;5049577;28;20414;-64
2021/06/29 07:09:41;;;;;;;8.20;7.70;;;;;;;26.53;52.45;98228.91;5051623;28;20057;-64
2021/06/29 07:12:07;;;;;;;9.00;8.18;;;;;;;26.62;52.16;98236.81;5052083;28;20033;-64
2021/06/29 07:14:32;;;;;;;8.35;7.65;;;;;;;26.74;52.19;98232.22;5051810;28;20076;-63
2021/06/29 07:16:58;;;;;;;7.60;7.10;;;;;;;26.80;52.36;98234.31;5050904;28;20052;-64
2021/06/29 07:19:23;;;;;;;7.88;7.05;;;;;;;26.91;52.26;98242.06;5050363;28;20036;-64
2021/06/29 07:21:49;;;;;;;10.52;7.80;;;;;;;26.62;52.75;98246.50;5051073;28;20036;-63
2021/06/29 07:24:14;;;;;;;7.97;7.18;;;;;;;26.76;51.86;98240.81;5049895;28;20396;-63
2021/06/29 07:26:40;;;;;;;8.32;7.78;;;;;;;26.91;52.34;98234.16;5051504;28;20123;-63
2021/06/29 07:29:05;;;;;;;7.85;7.20;;;;;;;27.10;51.76;98228.03;5050146;28;20025;-64
2021/06/29 07:31:32;;;;;;;7.80;7.20;;;;;;;27.32;50.83;98224.25;5051258;28;20051;-64
2021/06/29 07:33:57;;;;;;;8.52;7.78;;;;;;;27.30;50.86;98229.66;5051103;28;20033;-63
2021/06/29 07:36:22;;;;;;;7.78;7.07;;;;;;;27.25;50.97;98226.59;5050786;28;20095;-64
2021/06/29 07:38:48;;;;;;;8.77;7.40;;;;;;;27.07;50.90;98229.19;5037305;28;20610;-63
2021/06/29 07:41:14;;;;;;;7.75;7.03;;;;;;;27.23;50.78;98220.66;5050501;28;20040;-64
2021/06/29 07:43:40;;;;;;;9.00;8.40;;;;;;;27.36;50.30;98222.97;5050814;28;20032;-63
2021/06/29 07:46:06;;;;;;;8.43;7.82;;;;;;;27.34;50.03;98225.75;5051604;28;20047;-64
2021/06/29 07:48:31;;;;;;;8.95;7.70;;;;;;;27.25;50.85;98222.16;5034453;28;20029;-64
2021/06/29 07:50:57;;;;;;;7.95;7.32;;;;;;;27.54;50.27;98229.19;5050725;28;20033;-64
2021/06/29 07:53:23;;;;;;;8.13;7.63;;;;;;;27.49;50.04;98216.44;5050017;28;20044;-63
2021/06/29 07:55:49;;;;;;;8.50;7.70;;;;;;;27.75;49.76;98218.41;5049062;28;20027;-63
2021/06/29 07:58:16;;;;;;;8.90;7.93;;;;;;;27.68;49.58;98224.25;5050121;28;20104;-63
2021/06/29 08:00:42;;;;;;;8.43;7.78;;;;;;;27.86;49.18;98226.94;5051075;28;20035;-62
2021/06/29 08:03:07;;;;;;;9.32;8.50;;;;;;;27.90;49.29;98238.00;5050006;28;20032;-64
2021/06/29 08:05:32;;;;;;;9.52;7.75;;;;;;;27.74;49.43;98241.28;5039171;28;20020;-62
2021/06/29 08:07:58;;;;;;;9.13;8.52;;;;;;;27.60;49.80;98236.50;5052055;28;20041;-63
2021/06/29 08:10:24;;;;;;;8.48;7.88;;;;;;;27.63;48.78;98231.75;5034115;28;20062;-63
2021/06/29 08:12:50;;;;;;;10.32;8.02;;;;;;;27.79;49.71;98235.59;5050166;28;20622;-63
2021/06/29 08:15:16;;;;;;;9.32;8.30;;;;;;;27.90;48.96;98230.94;5050557;28;20082;-63
2021/06/29 08:17:45;;;;;;;8.75;8.07;;;;;;;27.75;49.64;98235.06;5050563;28;20116;-63
2021/06/29 08:20:12;;;;;;;8.80;8.20;;;;;;;27.95;49.21;98231.31;5050320;28;20025;-63
2021/06/29 08:22:38;;;;;;;8.77;8.13;;;;;;;27.95;47.90;98236.59;5046828;28;20045;-64
2021/06/29 08:25:05;;;;;;;8.75;7.95;;;;;;;28.04;48.52;98227.81;5049292;28;20029;-64
2021/06/29 08:27:31;;;;;;;10.05;9.00;;;;;;;28.13;48.07;98224.28;5048469;28;20032;-64
2021/06/29 08:29:58;;;;;;;9.15;8.55;;;;;;;28.18;47.72;98231.75;5050544;28;20388;-63
2021/06/29 08:32:24;;;;;;;10.30;9.43;;;;;;;28.22;47.96;98227.03;5048055;28;20090;-63
2021/06/29 08:34:49;;;;;;;8.98;8.25;;;;;;;28.44;47.69;98219.47;5047091;28;20029;-64
2021/06/29 08:37:15;;;;;;;9.55;8.85;;;;;;;28.61;46.91;98213.38;5050322;28;20036;-63
2021/06/29 08:39:40;;;;;;;10.20;9.35;;;;;;;28.45;46.61;98230.88;5049641;28;20347;-63
2021/06/29 08:42:06;;;;;;;9.50;8.68;;;;;;;28.38;47.32;98227.19;5049315;28;20079;-63
2021/06/29 08:44:32;;;;;;;9.52;8.73;;;;;;;28.39;46.58;98220.94;5050408;28;20024;-63
2021/06/29 08:46:57;;;;;;;9.35;8.65;;;;;;;28.46;47.21;98219.34;5034787;28;20040;-64
2021/06/29 08:49:23;;;;;;;13.05;8.65;;;;;;;28.37;47.18;98223.72;5049237;28;20037;-63
2021/06/29 08:51:51;;;;;;;9.77;9.07;;;;;;;28.26;46.89;98217.84;5049323;28;20108;-62
2021/06/29 08:54:18;;;;;;;9.90;9.20;;;;;;;28.49;46.67;98221.66;5050137;28;20024;-63
2021/06/29 08:56:47;;;;;;;10.27;9.38;;;;;;;28.71;46.67;98213.31;5049932;28;20437;-63
2021/06/29 08:59:13;;;;;;;10.70;9.70;;;;;;;28.62;46.46;98211.56;5049530;28;20020;-63
2021/06/29 09:01:38;;;;;;;11.13;10.18;;;;;;;29.07;45.70;98211.41;5049031;28;20063;-62
2021/06/29 09:04:04;;;;;;;9.60;8.90;;;;;;;29.19;45.24;98202.28;5050345;28;20029;-64
2021/06/29 09:06:38;;;;;;;9.20;8.55;;;;;;;29.27;44.84;98204.97;5049632;28;20029;-62
2021/06/29 09:09:22;;;;;;;;;;;;;;;29.00;45.05;98210.38;5049691;28;20417;-63
2021/06/29 09:11:48;;;;;;;10.80;9.88;;;;;;;28.94;45.59;98205.75;5047432;28;19920;-64
2021/06/29 09:14:16;;;;;;;10.45;9.65;;;;;;;29.05;45.22;98208.94;5049011;28;20024;-63
2021/06/29 09:16:46;;;;;;;10.93;9.93;;;;;;;29.11;45.10;98189.00;5050839;28;20240;-64
2021/06/29 09:19:11;;;;;;;10.25;9.50;;;;;;;29.20;44.46;98192.50;5048891;28;20075;-64
2021/06/29 09:21:37;;;;;;;9.88;8.98;;;;;;;29.41;44.68;98179.78;5048476;28;20028;-64
2021/06/29 09:24:03;;;;;;;10.45;9.68;;;;;;;29.63;44.10;98195.06;5049032;28;20029;-64
2021/06/29 09:26:29;;;;;;;10.18;9.27;;;;;;;29.58;43.56;98194.72;5049022;28;20021;-64
2021/06/29 09:29:01;;;;;;;10.18;9.45;;;;;;;29.30;44.03;98194.09;5037027;28;20033;-63
2021/06/29 09:31:33;;;;;;;9.93;9.32;;;;;;;29.69;43.55;98193.59;5052604;28;20032;-64
2021/06/29 09:34:01;;;;;;;10.38;9.57;;;;;;;29.88;43.26;98194.19;5053372;28;20144;-64
2021/06/29 09:36:29;;;;;;;10.02;9.20;;;;;;;29.47;43.69;98195.84;5052407;28;20037;-64
2021/06/29 09:38:58;;;;;;;10.15;9.23;;;;;;;29.42;43.92;98195.47;5054257;28;20095;-64
2021/06/29 09:41:29;;;;;;;9.77;9.18;;;;;;;29.58;43.69;98189.44;5052134;28;20175;-64
2021/06/29 09:44:01;;;;;;;9.80;9.10;;;;;;;29.35;43.40;98188.34;5052309;28;20032;-64
2021/06/29 09:46:27;;;;;;;9.73;9.00;;;;;;;29.11;44.42;98188.19;5053284;28;20037;-64
2021/06/29 09:49:00;;;;;;;8.85;8.15;;;;;;;29.37;43.76;98195.13;5051833;28;20353;-64
2021/06/29 09:51:29;;;;;;;9.03;8.27;;;;;;;29.21;44.49;98181.81;5051454;28;20029;-64
2021/06/29 09:53:58;;;;;;;9.50;8.80;;;;;;;29.39;44.29;98182.59;5050574;28;20036;-64
2021/06/29 09:56:26;;;;;;;8.57;7.97;;;;;;;29.49;44.97;98191.19;5052826;28;20043;-63
2021/06/29 09:58:55;;;;;;;9.55;8.60;;;;;;;29.44;44.97;98182.94;5052287;28;20024;-64
2021/06/29 10:01:22;;;;;;;9.25;8.48;;;;;;;29.53;44.53;98186.47;5052872;28;20028;-64
2021/06/29 10:03:53;;;;;;;8.20;7.40;;;;;;;29.55;43.26;98192.38;5052800;28;20569;-64
2021/06/29 10:06:19;;;;;;;9.48;8.75;;;;;;;29.49;43.93;98187.75;5048376;28;20021;-64
2021/06/29 10:08:47;;;;;;;8.20;7.68;;;;;;;29.31;43.96;98189.66;5050445;28;20159;-64
2021/06/29 10:11:23;;;;;;;8.45;7.85;;;;;;;29.40;44.38;98194.00;5051950;28;20333;-64
2021/06/29 10:14:09;;;;;;;9.18;8.35;;;;;;;29.43;43.58;98183.94;5051473;28;20108;-64
2021/06/29 10:16:39;;;;;;;8.98;8.13;;;;;;;29.49;44.36;98182.47;5052033;28;20028;-64
2021/06/29 10:21:47;;;;;;;9.48;8.70;;;;;;;29.69;44.11;98173.28;5052668;28;20135;-63
2021/06/29 10:24:15;;;;;;;8.48;7.78;;;;;;;29.56;44.02;98175.56;5052355;28;20036;-63
2021/06/29 10:26:42;;;;;;;8.35;7.82;;;;;;;29.53;43.77;98172.41;5052331;28;20425;-63
2021/06/29 10:29:12;;;;;;;7.95;7.38;;;;;;;29.67;42.96;98164.69;5048497;28;20029;-64
2021/06/29 10:31:42;;;;;;;7.25;6.72;;;;;;;29.60;43.22;98173.41;5051681;28;20079;-65
2021/06/29 10:34:09;;;;;;;8.02;7.43;;;;;;;29.48;43.50;98178.16;5051805;28;20117;-65
2021/06/29 10:36:39;;;;;;;7.53;7.03;;;;;;;29.81;43.19;98176.47;5051641;28;20338;-65
2021/06/29 10:39:08;;;;;;;6.78;6.38;;;;;;;30.11;41.97;98167.13;5051606;28;20108;-64
2021/06/29 10:41:38;;;;;;;7.78;7.25;;;;;;;29.86;42.41;98176.81;5053325;28;20039;-64
2021/06/29 10:44:13;;;;;;;7.65;7.03;;;;;;;30.25;41.63;98177.91;5051923;28;20131;-64
2021/06/29 10:46:48;;;;;;;6.47;5.90;;;;;;;29.99;41.96;98171.09;5048717;28;20060;-64
2021/06/29 10:49:40;;;;;;;7.30;6.60;;;;;;;29.71;41.94;98165.19;5049373;28;20369;-65
2021/06/29 10:52:08;;;;;;;6.90;6.38;;;;;;;29.96;41.72;98177.50;5051518;28;20036;-64
2021/06/29 10:54:43;;;;;;;6.80;6.18;;;;;;;29.92;41.68;98166.44;5051143;28;20116;-64
2021/06/29 10:57:16;;;;;;;6.30;5.95;;;;;;;30.31;41.09;98165.81;5050458;28;20175;-65
2021/06/29 10:59:46;;;;;;;6.07;5.68;;;;;;;30.53;41.19;98154.63;5051563;28;20380;-65
2021/06/29 11:02:15;;;;;;;8.98;5.57;;;;;;;29.74;41.35;98163.06;5050051;28;20358;-64
2021/06/29 11:04:46;;;;;;;6.72;6.18;;;;;;;30.10;40.67;98162.84;5051372;28;20369;-64
2021/06/29 11:07:27;;;;;;;6.07;5.60;;;;;;;29.73;41.70;98163.22;5051237;28;20033;-64
2021/06/29 11:09:56;;;;;;;6.03;5.70;;;;;;;30.18;40.37;98150.44;5051421;28;20049;-65
2021/06/29 11:12:23;;;;;;;5.97;5.57;;;;;;;30.28;40.08;98158.22;5050370;28;20031;-64
2021/06/29 11:14:51;;;;;;;5.65;5.13;;;;;;;30.25;40.20;98159.41;5049684;28;20428;-64
2021/06/29 11:17:18;;;;;;;6.72;6.15;;;;;;;30.02;40.14;98154.88;5050270;28;20059;-65
2021/06/29 11:20:06;;;;;;;5.45;5.15;;;;;;;29.99;40.77;98153.41;5053306;28;20060;-65
2021/06/29 11:22:53;;;;;;;5.65;5.35;;;;;;;30.30;40.31;98150.94;5049103;28;20041;-65
2021/06/29 11:25:30;;;;;;;6.93;6.50;;;;;;;30.36;40.43;98156.41;5051373;28;20446;-64
2021/06/29 11:28:09;;;;;;;5.10;4.70;;;;;;;30.39;40.57;98144.66;5051549;28;20041;-65
2021/06/29 11:31:03;;;;;;;6.05;5.65;;;;;;;30.15;40.58;98137.56;5051217;28;20083;-65
2021/06/29 11:33:33;;;;;;;5.85;5.55;;;;;;;30.01;40.29;98135.56;5051278;28;20032;-65